Time;durP1;ratioP1;P1;durP2;ratioP2;P2;SDS_P1;SDS_P2;PMS_P1;PMS_P2;Temp;Humidity;BMP_temperature;BMP_pressure;BME280_temperature;BME280_humidity;BME280_pressure;Samples;Min_cycle;Max_cycle;Signal;HPM_P1;HPM_P2
2020/12/18 00:01:35;;;;;;;50.67;26.63;;;;;;;2.06;86.32;98956.56;4841971;29;20057;-71
2020/12/18 00:04:29;;;;;;;51.83;27.60;;;;;;;1.92;87.50;98956.03;4829024;29;20551;-69
2020/12/18 00:06:55;;;;;;;57.67;30.17;;;;;;;1.66;88.54;98954.03;4842246;29;20046;-71
2020/12/18 00:09:21;;;;;;;53.42;28.83;;;;;;;1.83;88.60;98948.47;4841651;29;20073;-71
2020/12/18 00:11:46;;;;;;;55.95;30.00;;;;;;;1.73;88.22;98960.75;4841348;29;20073;-71
2020/12/18 00:14:12;;;;;;;54.05;29.70;;;;;;;1.53;90.30;98959.44;4839986;29;20053;-71
2020/12/18 00:16:38;;;;;;;55.45;28.88;;;;;;;1.50;89.97;98954.34;4841478;29;20076;-71
2020/12/18 00:19:04;;;;;;;53.95;29.27;;;;;;;1.73;88.76;98964.19;4841709;29;20137;-71
2020/12/18 00:21:30;;;;;;;57.85;30.00;;;;;;;1.54;90.21;98962.88;4841450;29;20050;-71
2020/12/18 00:23:55;;;;;;;55.42;29.45;;;;;;;1.51;90.20;98960.34;4841739;29;20058;-69
2020/12/18 00:26:21;;;;;;;55.28;29.42;;;;;;;1.70;89.80;98971.16;4841290;29;20053;-70
2020/12/18 00:28:47;;;;;;;53.90;29.80;;;;;;;1.66;89.52;98970.38;4841690;29;20540;-70
2020/12/18 00:31:14;;;;;;;56.25;28.73;;;;;;;1.88;89.45;98967.31;4840945;29;20410;-72
2020/12/18 00:33:40;;;;;;;57.53;30.10;;;;;;;1.60;90.06;98961.00;4825310;29;20050;-70
2020/12/18 00:36:10;;;;;;;59.25;30.92;;;;;;;1.63;90.58;98962.69;4841107;29;20521;-70
2020/12/18 00:38:35;;;;;;;57.58;30.63;;;;;;;1.57;91.14;98966.22;4841428;29;20075;-70
2020/12/18 00:41:01;;;;;;;60.80;32.17;;;;;;;1.69;90.68;98969.47;4841774;29;20049;-70
2020/12/18 00:43:27;;;;;;;62.22;32.25;;;;;;;1.79;89.98;98965.78;4824608;29;20070;-72
2020/12/18 00:45:53;;;;;;;59.13;31.88;;;;;;;1.93;89.02;98965.47;4841311;29;20054;-70
2020/12/18 00:48:18;;;;;;;58.20;31.42;;;;;;;1.75;89.30;98965.00;4841049;29;20046;-70
2020/12/18 00:50:44;;;;;;;60.67;31.73;;;;;;;1.97;88.86;98972.28;4841462;29;20061;-70
2020/12/18 00:53:10;;;;;;;63.03;33.22;;;;;;;2.01;88.14;98968.75;4841134;29;20053;-75
2020/12/18 00:55:36;;;;;;;59.13;31.05;;;;;;;1.70;90.08;98966.84;4844475;29;20098;-70
2020/12/18 00:58:02;;;;;;;61.60;32.40;;;;;;;1.77;90.09;98962.38;4845225;29;20049;-70
2020/12/18 01:00:28;;;;;;;63.08;31.80;;;;;;;1.71;90.12;98968.53;4845098;29;20057;-70
2020/12/18 01:02:54;;;;;;;64.63;32.33;;;;;;;1.92;89.38;98971.53;4844854;29;20058;-70
2020/12/18 01:05:19;;;;;;;59.45;30.98;;;;;;;2.01;88.63;98975.63;4844769;29;20050;-70
2020/12/18 01:07:45;;;;;;;63.25;31.92;;;;;;;1.88;89.35;98975.06;4845037;29;20056;-70
2020/12/18 01:10:11;;;;;;;67.25;31.65;;;;;;;2.06;88.38;98977.25;4844871;29;20046;-75
2020/12/18 01:12:37;;;;;;;64.80;32.92;;;;;;;1.87;89.29;98975.94;4845367;29;20057;-70
2020/12/18 01:15:03;;;;;;;68.45;32.22;;;;;;;1.64;91.07;98968.69;4845142;29;20050;-70
2020/12/18 01:17:29;;;;;;;58.63;31.10;;;;;;;1.70;90.33;98971.16;4844665;29;20069;-70
2020/12/18 01:19:56;;;;;;;57.80;30.63;;;;;;;1.82;90.95;98972.63;4845164;29;20562;-70
2020/12/18 01:22:22;;;;;;;58.95;30.40;;;;;;;1.78;89.70;98970.09;4843780;29;20050;-70
2020/12/18 01:24:48;;;;;;;58.83;31.23;;;;;;;1.85;89.71;98969.97;4845117;29;20070;-70
2020/12/18 01:27:14;;;;;;;59.05;31.08;;;;;;;1.92;88.66;98969.81;4844297;29;20054;-75
2020/12/18 01:29:39;;;;;;;58.08;29.63;;;;;;;2.12;88.34;98973.69;4844867;29;20402;-70
2020/12/18 01:32:05;;;;;;;58.92;30.92;;;;;;;1.94;89.06;98970.59;4844756;29;20053;-70
2020/12/18 01:34:31;;;;;;;61.80;31.85;;;;;;;1.83;89.98;98967.41;4844521;29;20547;-70
2020/12/18 01:36:57;;;;;;;52.65;30.13;;;;;;;1.88;89.22;98978.50;4844496;29;20506;-69
2020/12/18 01:39:22;;;;;;;58.00;30.38;;;;;;;1.74;90.16;98976.22;4827738;29;20058;-70
2020/12/18 01:41:48;;;;;;;58.55;31.63;;;;;;;1.82;90.75;98976.06;4844569;29;20494;-70
2020/12/18 01:44:14;;;;;;;65.55;33.17;;;;;;;1.70;92.44;98978.91;4844239;29;20494;-78
2020/12/18 01:46:40;;;;;;;60.97;32.67;;;;;;;1.84;90.64;98973.44;4844574;29;20547;-70
2020/12/18 01:49:05;;;;;;;69.50;35.15;;;;;;;1.63;93.19;98974.75;4844362;29;20061;-70
2020/12/18 01:51:32;;;;;;;61.58;32.78;;;;;;;1.84;91.37;98979.47;4844127;29;20110;-71
2020/12/18 01:53:57;;;;;;;60.65;32.13;;;;;;;2.03;91.35;98974.72;4844435;29;20053;-70
2020/12/18 01:56:24;;;;;;;61.72;32.03;;;;;;;1.88;91.02;98978.50;4843597;29;20114;-71
2020/12/18 01:58:52;;;;;;;59.92;33.88;;;;;;;1.55;94.42;98985.25;4843981;29;20066;-71
2020/12/18 02:01:18;;;;;;;68.20;33.95;;;;;;;1.52;94.86;98975.81;4843530;29;20054;-71
2020/12/18 02:03:43;;;;;;;63.17;33.67;;;;;;;1.84;93.40;98982.06;4832920;29;20677;-70
2020/12/18 02:06:17;;;;;;;63.08;33.35;;;;;;;2.01;92.33;98984.28;4828984;29;20107;-70
2020/12/18 02:08:44;;;;;;;60.13;32.33;;;;;;;1.77;93.27;98986.50;4825558;29;20081;-71
2020/12/18 02:11:12;;;;;;;62.70;35.45;;;;;;;1.90;93.26;98984.50;4825643;29;20518;-70
2020/12/18 02:13:38;;;;;;;65.53;34.25;;;;;;;2.06;91.94;98985.00;4825135;29;20061;-71
2020/12/18 02:16:04;;;;;;;62.25;34.78;;;;;;;1.76;93.42;98989.97;4825492;29;20496;-70
2020/12/18 02:18:31;;;;;;;64.40;35.65;;;;;;;1.66;93.85;98983.28;4831051;29;20050;-71
2020/12/18 02:20:57;;;;;;;70.13;37.30;;;;;;;1.60;95.07;98991.16;4843937;29;20490;-70
2020/12/18 02:23:22;;;;;;;66.70;37.15;;;;;;;1.52;95.33;98987.91;4843072;29;20050;-71
2020/12/18 02:26:09;;;;;;;72.25;39.08;;;;;;;1.78;93.28;98988.19;4843330;29;20049;-70
2020/12/18 02:28:39;;;;;;;70.15;36.42;;;;;;;1.74;94.05;98988.28;4843170;29;20058;-70
2020/12/18 02:31:05;;;;;;;70.72;36.90;;;;;;;1.80;93.85;98993.34;4843771;29;20060;-70
2020/12/18 02:33:31;;;;;;;69.30;37.10;;;;;;;1.77;94.35;98999.41;4827032;29;20050;-70
2020/12/18 02:35:59;;;;;;;73.57;39.65;;;;;;;1.97;93.84;98986.06;4843353;29;20061;-71
2020/12/18 02:38:25;;;;;;;73.30;38.75;;;;;;;1.91;93.35;98993.94;4843129;29;20050;-71
2020/12/18 02:40:52;;;;;;;63.30;37.15;;;;;;;1.97;93.08;98991.22;4843345;29;20494;-70
2020/12/18 02:43:18;;;;;;;64.22;34.60;;;;;;;1.68;94.53;98999.59;4843252;29;20050;-77
2020/12/18 02:45:44;;;;;;;72.25;37.25;;;;;;;1.98;93.66;98992.09;4843792;29;20053;-70
2020/12/18 02:48:10;;;;;;;67.18;37.25;;;;;;;1.83;93.79;98990.69;4843447;29;20046;-71
2020/12/18 02:50:36;;;;;;;70.90;37.30;;;;;;;1.93;93.46;98987.03;4842818;29;20073;-70
2020/12/18 02:53:12;;;;;;;69.38;36.53;;;;;;;1.83;95.13;98989.84;4843472;29;20060;-71
2020/12/18 02:55:38;;;;;;;66.85;35.70;;;;;;;1.85;94.22;98988.91;4842929;29;20098;-70
2020/12/18 02:58:04;;;;;;;66.53;36.33;;;;;;;1.82;94.25;98980.38;4842855;29;20070;-70
2020/12/18 03:00:29;;;;;;;63.95;35.58;;;;;;;2.03;93.38;98987.66;4842472;29;20058;-70
2020/12/18 03:02:55;;;;;;;72.13;34.97;;;;;;;1.85;94.19;98985.47;4842967;29;20049;-70
2020/12/18 03:05:21;;;;;;;71.53;37.30;;;;;;;1.81;94.67;98986.41;4842502;29;20129;-76
2020/12/18 03:07:46;;;;;;;68.25;36.47;;;;;;;1.96;94.62;98988.66;4843118;29;20129;-70
2020/12/18 03:10:12;;;;;;;68.40;37.05;;;;;;;2.03;93.99;98995.41;4842973;29;20085;-69
2020/12/18 03:12:38;;;;;;;68.15;35.72;;;;;;;1.88;94.67;98985.41;4842451;29;20148;-70
2020/12/18 03:15:03;;;;;;;69.18;38.08;;;;;;;1.76;95.13;98987.41;4842983;29;20056;-70
2020/12/18 03:17:29;;;;;;;73.03;37.92;;;;;;;1.84;94.99;98984.66;4842324;29;20138;-71
2020/12/18 03:19:55;;;;;;;70.72;36.22;;;;;;;1.67;96.02;98985.00;4842911;29;20064;-70
2020/12/18 03:22:21;;;;;;;72.00;35.45;;;;;;;2.00;94.63;98994.66;4842623;29;20074;-76
2020/12/18 03:24:46;;;;;;;61.42;34.33;;;;;;;1.84;94.65;98984.66;4842841;29;20061;-70
2020/12/18 03:27:12;;;;;;;66.32;35.90;;;;;;;1.99;92.91;98988.59;4842664;29;20098;-70
2020/12/18 03:29:38;;;;;;;59.78;33.10;;;;;;;1.99;93.26;98993.78;4842178;29;20074;-70
2020/12/18 03:32:03;;;;;;;67.90;35.97;;;;;;;1.78;95.37;98995.97;4811345;29;20049;-69
2020/12/18 03:34:29;;;;;;;68.35;35.53;;;;;;;1.95;94.69;99000.75;4842192;29;20046;-70
2020/12/18 03:36:55;;;;;;;66.85;35.83;;;;;;;1.77;96.20;99004.59;4842781;29;20376;-70
2020/12/18 03:39:21;;;;;;;67.78;35.47;;;;;;;1.77;96.10;99003.75;4842982;29;20109;-74
2020/12/18 03:41:47;;;;;;;69.45;34.85;;;;;;;1.89;95.20;99005.22;4841998;29;20054;-70
2020/12/18 03:44:13;;;;;;;68.00;36.35;;;;;;;1.79;96.50;99013.19;4842105;29;20041;-69
2020/12/18 03:46:38;;;;;;;69.50;35.30;;;;;;;1.72;96.83;99016.75;4841579;29;20050;-70
2020/12/18 03:49:04;;;;;;;69.57;35.90;;;;;;;1.79;96.58;99018.34;4842392;29;20080;-70
2020/12/18 03:51:30;;;;;;;70.47;37.53;;;;;;;1.73;96.12;99010.72;4841923;29;20560;-70
2020/12/18 03:53:55;;;;;;;72.53;37.42;;;;;;;1.77;96.16;99014.09;4842113;29;20061;-69
2020/12/18 03:56:21;;;;;;;71.10;38.53;;;;;;;2.07;93.53;99022.06;4842383;29;20046;-69
2020/12/18 03:58:47;;;;;;;74.25;39.38;;;;;;;1.94;93.87;99019.75;4841595;29;20522;-69
2020/12/18 04:01:13;;;;;;;75.70;39.78;;;;;;;1.78;95.98;99021.81;4842137;29;20103;-69
2020/12/18 04:03:38;;;;;;;75.35;39.35;;;;;;;1.76;95.86;99023.59;4825381;29;20475;-70
2020/12/18 04:06:04;;;;;;;72.10;40.30;;;;;;;1.80;95.72;99026.94;4841848;29;20053;-70
2020/12/18 04:08:30;;;;;;;71.35;38.58;;;;;;;1.91;94.20;99022.38;4841725;29;20065;-69
2020/12/18 04:10:56;;;;;;;76.50;40.17;;;;;;;1.89;94.61;99028.50;4840976;29;20061;-70
2020/12/18 04:13:21;;;;;;;70.97;37.53;;;;;;;2.14;93.06;99013.28;4842181;29;20058;-69
2020/12/18 04:15:47;;;;;;;71.38;37.03;;;;;;;2.14;91.15;99019.31;4841145;29;20513;-69
2020/12/18 04:18:14;;;;;;;73.72;39.95;;;;;;;1.96;94.12;99024.88;4841793;29;20475;-69
2020/12/18 04:20:40;;;;;;;73.90;38.78;;;;;;;1.91;94.61;99021.56;4841127;29;20420;-69
2020/12/18 04:23:07;;;;;;;69.28;35.95;;;;;;;1.86;93.79;99026.81;4841858;29;20129;-69
2020/12/18 04:25:33;;;;;;;69.10;36.80;;;;;;;1.89;93.75;99025.91;4841177;29;20422;-70
2020/12/18 04:27:59;;;;;;;71.03;36.63;;;;;;;2.40;91.33;99020.44;4841938;29;20045;-70
2020/12/18 04:30:25;;;;;;;71.80;37.05;;;;;;;2.27;90.29;99024.19;4809895;29;20087;-74
2020/12/18 04:32:51;;;;;;;67.47;35.78;;;;;;;1.97;92.50;99021.41;4840952;29;20061;-70
2020/12/18 04:35:18;;;;;;;67.68;35.90;;;;;;;2.46;90.32;99027.22;4841126;29;20050;-69
2020/12/18 04:37:43;;;;;;;70.38;36.30;;;;;;;2.04;92.65;99027.28;4841161;29;20045;-70
2020/12/18 04:40:09;;;;;;;63.17;34.35;;;;;;;2.00;93.50;99036.03;4841581;29;20392;-69
2020/12/18 04:42:35;;;;;;;68.72;36.83;;;;;;;1.88;94.65;99037.13;4841178;29;20056;-70
2020/12/18 04:45:03;;;;;;;77.63;38.67;;;;;;;1.82;94.63;99035.50;4841625;29;20057;-70
2020/12/18 04:47:36;;;;;;;72.68;37.38;;;;;;;2.26;92.96;99031.13;4840921;29;20054;-75
2020/12/18 04:50:02;;;;;;;72.20;38.38;;;;;;;2.08;92.53;99031.53;4841493;29;20396;-69
2020/12/18 04:52:29;;;;;;;72.82;37.45;;;;;;;2.18;92.58;99037.34;4840546;29;20495;-76
2020/12/18 04:54:59;;;;;;;75.00;39.35;;;;;;;2.08;92.95;99024.59;4841542;29;20058;-69
2020/12/18 04:57:28;;;;;;;72.45;37.63;;;;;;;1.96;93.77;99040.41;4841507;29;20153;-70
2020/12/18 04:59:55;;;;;;;77.15;40.67;;;;;;;1.75;96.26;99041.72;4840612;29;20068;-70
2020/12/18 05:02:23;;;;;;;80.68;39.78;;;;;;;1.97;95.68;99042.09;4835635;29;20046;-70
2020/12/18 05:04:48;;;;;;;86.47;42.55;;;;;;;1.79;95.86;99044.19;4835823;29;20054;-70
2020/12/18 05:07:14;;;;;;;88.47;42.53;;;;;;;1.83;95.88;99044.13;4838427;29;20054;-70
2020/12/18 05:09:41;;;;;;;86.28;41.10;;;;;;;1.91;95.27;99044.81;4832807;29;20040;-70
2020/12/18 05:12:08;;;;;;;89.78;43.08;;;;;;;2.00;95.27;99049.81;4823039;29;20050;-69
2020/12/18 05:14:35;;;;;;;90.80;42.95;;;;;;;1.74;97.88;99047.75;4822634;29;20059;-69
2020/12/18 05:17:05;;;;;;;90.50;43.28;;;;;;;1.66;98.29;99045.31;4823016;29;20058;-69
2020/12/18 05:19:39;;;;;;;88.20;43.50;;;;;;;2.11;97.01;99054.75;4822741;29;20077;-75
2020/12/18 05:22:07;;;;;;;87.55;41.65;;;;;;;2.04;95.39;99056.63;4838459;29;20057;-69
2020/12/18 05:24:35;;;;;;;92.63;43.10;;;;;;;2.22;94.80;99055.34;4834682;29;20038;-70
2020/12/18 05:27:01;;;;;;;90.03;42.58;;;;;;;2.16;95.16;99060.66;4840818;29;20070;-69
2020/12/18 05:29:27;;;;;;;86.30;40.78;;;;;;;1.84;97.27;99069.09;4841029;29;20148;-70
2020/12/18 05:32:03;;;;;;;94.55;43.88;;;;;;;1.82;98.51;99063.94;4839792;29;20415;-70
2020/12/18 05:34:29;;;;;;;85.25;40.65;;;;;;;1.99;97.51;99055.84;4841190;29;20050;-69
2020/12/18 05:36:56;;;;;;;95.10;42.05;;;;;;;1.84;98.31;99058.75;4838860;29;20065;-73
2020/12/18 05:39:22;;;;;;;90.70;41.70;;;;;;;1.72;98.49;99068.47;4840809;29;20114;-71
2020/12/18 05:42:04;;;;;;;92.90;44.03;;;;;;;2.10;97.26;99073.72;4842294;29;20054;-71
2020/12/18 05:44:31;;;;;;;94.18;43.35;;;;;;;2.06;97.07;99075.53;4844492;29;20050;-71
2020/12/18 05:47:08;;;;;;;95.28;43.72;;;;;;;1.76;98.01;99070.13;4812768;29;20077;-74
2020/12/18 05:49:36;;;;;;;97.95;43.38;;;;;;;1.87;99.11;99074.19;4843572;29;20050;-77
2020/12/18 05:52:05;;;;;;;93.68;42.85;;;;;;;2.04;97.65;99074.72;4818516;29;20058;-78
2020/12/18 05:54:33;;;;;;;96.88;44.03;;;;;;;1.73;99.15;99072.75;4845955;29;20462;-82
2020/12/18 05:57:07;;;;;;;97.50;43.25;;;;;;;1.77;98.97;99081.28;4844892;29;20058;-78
2020/12/18 05:59:39;;;;;;;101.05;43.97;;;;;;;1.73;99.96;99075.34;4843891;29;20057;-79
2020/12/18 06:02:09;;;;;;;99.93;43.80;;;;;;;1.98;98.19;99074.84;4838455;29;20123;-77
2020/12/18 06:04:36;;;;;;;101.43;46.20;;;;;;;1.77;99.20;99083.88;4835452;29;20049;-75
2020/12/18 06:07:02;;;;;;;110.70;47.55;;;;;;;2.02;97.92;99083.38;4843207;29;20061;-78
2020/12/18 06:09:28;;;;;;;104.13;46.92;;;;;;;1.87;98.10;99087.13;4840327;29;20077;-75
2020/12/18 06:11:54;;;;;;;111.03;50.70;;;;;;;1.82;99.93;99087.22;4831694;29;20610;-72
2020/12/18 06:14:20;;;;;;;117.22;53.40;;;;;;;2.19;95.67;99091.63;4823695;29;20082;-72
2020/12/18 06:16:48;;;;;;;114.63;55.05;;;;;;;1.82;98.81;99083.78;4823460;29;20042;-73
2020/12/18 06:19:16;;;;;;;108.43;49.58;;;;;;;1.81;99.31;99098.47;4825556;29;20046;-72
2020/12/18 06:21:52;;;;;;;99.18;46.38;;;;;;;1.71;99.22;99100.34;4840912;29;20057;-74
2020/12/18 06:24:18;;;;;;;102.90;48.35;;;;;;;2.15;97.05;99096.03;4842348;29;20061;-72
2020/12/18 06:26:56;;;;;;;101.53;47.78;;;;;;;1.95;97.97;99105.94;4834544;29;20042;-73
2020/12/18 06:29:24;;;;;;;109.60;48.22;;;;;;;1.84;99.17;99107.88;4841470;29;20046;-73
2020/12/18 06:31:53;;;;;;;109.40;50.35;;;;;;;2.01;99.25;99113.56;4839308;29;20054;-73
2020/12/18 06:34:26;;;;;;;114.28;52.08;;;;;;;1.84;99.29;99110.47;4842791;29;20050;-73
2020/12/18 06:36:55;;;;;;;128.23;56.97;;;;;;;1.75;99.48;99107.19;4842342;29;20137;-72
2020/12/18 06:39:22;;;;;;;143.38;59.83;;;;;;;1.66;100.00;99117.69;4842518;29;20049;-72
2020/12/18 06:42:07;;;;;;;134.90;60.83;;;;;;;1.64;100.00;99114.31;4841254;29;20099;-73
2020/12/18 06:44:34;;;;;;;141.27;61.88;;;;;;;1.99;99.68;99128.25;4841175;29;20050;-76
2020/12/18 06:47:15;;;;;;;136.63;58.78;;;;;;;1.90;99.50;99118.09;4841068;29;20054;-72
2020/12/18 06:49:56;;;;;;;126.82;57.75;;;;;;;2.24;97.19;99122.56;4841877;29;20058;-72
2020/12/18 06:52:42;;;;;;;123.03;57.90;;;;;;;2.35;96.00;99120.63;4840764;29;20049;-72
2020/12/18 06:55:13;;;;;;;128.00;59.05;;;;;;;2.14;97.12;99127.94;4841799;29;20057;-71
2020/12/18 06:57:39;;;;;;;137.70;62.47;;;;;;;1.88;98.70;99125.88;4840402;29;20052;-75
2020/12/18 07:00:27;;;;;;;134.32;62.72;;;;;;;1.86;99.60;99124.22;4853990;29;20064;-71
2020/12/18 07:02:54;;;;;;;149.20;66.82;;;;;;;1.91;99.72;99123.22;4859753;29;20160;-71
2020/12/18 07:05:32;;;;;;;149.77;67.95;;;;;;;2.27;97.87;99135.44;4859138;29;20041;-71
2020/12/18 07:08:00;;;;;;;151.73;71.25;;;;;;;2.29;97.50;99131.97;4857625;29;20097;-71
2020/12/18 07:10:36;;;;;;;164.23;75.15;;;;;;;1.83;99.81;99138.06;4850003;29;20050;-73
2020/12/18 07:13:03;;;;;;;187.68;82.15;;;;;;;1.67;100.00;99136.63;4860139;29;20049;-72
2020/12/18 07:15:47;;;;;;;169.27;76.68;;;;;;;2.22;98.85;99147.63;4843966;29;20106;-72
2020/12/18 07:18:30;;;;;;;185.38;81.18;;;;;;;1.87;99.88;99138.84;4848962;29;20137;-71
2020/12/18 07:20:59;;;;;;;205.70;84.38;;;;;;;1.85;100.00;99135.44;4859581;29;20053;-72
2020/12/18 07:23:26;;;;;;;195.82;81.55;;;;;;;2.08;100.00;99141.00;4859575;29;20124;-72
2020/12/18 07:25:53;;;;;;;194.27;81.65;;;;;;;1.83;100.00;99147.56;4860552;29;20465;-70
2020/12/18 07:28:20;;;;;;;192.80;78.80;;;;;;;2.03;100.00;99145.44;4848499;29;20054;-72
2020/12/18 07:30:49;;;;;;;203.13;80.78;;;;;;;1.97;100.00;99151.56;4840612;29;20050;-72
2020/12/18 07:33:16;;;;;;;181.02;78.18;;;;;;;2.04;100.00;99148.84;4843013;29;20134;-72
2020/12/18 07:35:46;;;;;;;191.68;77.45;;;;;;;2.00;100.00;99140.31;4858650;29;20073;-71
2020/12/18 07:38:33;;;;;;;186.88;75.00;;;;;;;1.87;100.00;99152.63;4858280;29;20466;-71
2020/12/18 07:41:01;;;;;;;205.00;79.40;;;;;;;1.75;100.00;99140.78;4855694;29;20045;-73
2020/12/18 07:43:33;;;;;;;190.82;77.13;;;;;;;2.20;100.00;99147.66;4859227;29;20082;-73
2020/12/18 07:46:03;;;;;;;200.70;77.03;;;;;;;2.05;100.00;99147.97;4858919;29;20736;-73
2020/12/18 07:48:31;;;;;;;207.70;75.82;;;;;;;1.88;100.00;99148.31;4859718;29;20106;-73
2020/12/18 07:51:05;;;;;;;185.70;70.78;;;;;;;1.99;100.00;99156.69;4857700;29;20045;-70
2020/12/18 07:53:37;;;;;;;174.48;69.32;;;;;;;2.19;100.00;99152.88;4858236;29;20053;-69
2020/12/18 07:56:13;;;;;;;167.30;70.07;;;;;;;2.15;100.00;99157.28;4859394;29;20049;-74
2020/12/18 07:59:05;;;;;;;179.88;70.82;;;;;;;2.07;100.00;99162.59;4859004;29;20097;-78
2020/12/18 08:01:36;;;;;;;184.20;76.88;;;;;;;2.23;100.00;99151.94;4848753;29;20053;-70
2020/12/18 08:04:04;;;;;;;194.55;79.82;;;;;;;2.13;100.00;99157.31;4857940;29;20116;-69
2020/12/18 08:06:37;;;;;;;199.32;81.90;;;;;;;2.04;100.00;99157.50;4859568;29;20100;-70
2020/12/18 08:09:08;;;;;;;207.13;84.68;;;;;;;2.05;100.00;99166.94;4848386;29;20045;-70
2020/12/18 08:11:36;;;;;;;217.48;86.28;;;;;;;2.05;100.00;99160.91;4859614;29;20042;-69
2020/12/18 08:14:03;;;;;;;185.80;79.05;;;;;;;2.11;100.00;99161.63;4858537;29;20060;-70
2020/12/18 08:16:32;;;;;;;219.93;87.35;;;;;;;2.03;100.00;99163.53;4857963;29;20110;-70
2020/12/18 08:19:00;;;;;;;223.80;89.03;;;;;;;2.09;100.00;99168.59;4857616;29;20060;-72
2020/12/18 08:21:46;;;;;;;190.52;75.50;;;;;;;2.01;100.00;99162.72;4858678;29;20093;-71
2020/12/18 08:24:12;;;;;;;194.13;76.70;;;;;;;2.07;100.00;99165.19;4858684;29;20065;-71
2020/12/18 08:26:45;;;;;;;181.63;76.57;;;;;;;2.16;100.00;99171.88;4858725;29;20636;-78
2020/12/18 08:29:12;;;;;;;186.00;77.18;;;;;;;2.35;100.00;99169.81;4857066;29;20106;-72
2020/12/18 08:31:41;;;;;;;182.55;75.68;;;;;;;2.62;99.99;99172.66;4858412;29;20128;-79
2020/12/18 08:34:12;;;;;;;170.52;72.90;;;;;;;2.45;100.00;99181.66;4858561;29;20100;-72
2020/12/18 08:36:44;;;;;;;172.93;73.50;;;;;;;2.33;100.00;99180.19;4858900;29;20103;-75
2020/12/18 08:39:11;;;;;;;185.88;74.97;;;;;;;2.40;100.00;99183.50;4857914;29;20054;-69
2020/12/18 08:41:46;;;;;;;177.68;70.95;;;;;;;2.29;100.00;99178.53;4858004;29;20077;-70
2020/12/18 08:44:17;;;;;;;169.63;67.88;;;;;;;2.38;100.00;99186.97;4859030;29;20057;-69
2020/12/18 08:46:43;;;;;;;154.25;67.72;;;;;;;2.56;99.91;99189.19;4856409;29;20054;-77
2020/12/18 08:49:16;;;;;;;182.73;72.57;;;;;;;2.56;100.00;99183.16;4858597;29;20465;-73
2020/12/18 08:51:43;;;;;;;165.98;69.38;;;;;;;2.67;99.64;99186.34;4858876;29;20056;-74
2020/12/18 08:54:47;;;;;;;175.70;73.15;;;;;;;2.68;99.21;99188.91;4858794;29;20050;-72
2020/12/18 08:57:16;;;;;;;173.40;73.68;;;;;;;2.89;98.38;99183.28;4838389;29;20492;-73
2020/12/18 09:00:15;;;;;;;158.10;69.40;;;;;;;3.08;96.21;99188.94;4836474;29;20185;-72
2020/12/18 09:02:43;;;;;;;154.73;66.70;;;;;;;2.80;95.94;99200.75;4834149;29;20465;-76
2020/12/18 09:05:09;;;;;;;156.48;68.28;;;;;;;3.00;96.80;99192.53;4837972;29;20143;-72
2020/12/18 09:07:42;;;;;;;155.25;65.85;;;;;;;2.67;97.35;99189.81;4837523;29;20050;-73
2020/12/18 09:10:11;;;;;;;148.98;65.03;;;;;;;2.67;98.51;99199.31;4837520;29;20054;-72
2020/12/18 09:12:41;;;;;;;173.55;73.28;;;;;;;2.73;99.42;99194.00;4837487;29;20514;-74
2020/12/18 09:15:24;;;;;;;146.40;65.80;;;;;;;3.04;96.28;99193.31;4838398;29;20115;-73
2020/12/18 09:18:04;;;;;;;150.40;69.50;;;;;;;3.11;96.08;99189.69;4840134;29;20066;-73
2020/12/18 09:20:33;;;;;;;150.40;66.57;;;;;;;3.40;92.90;99204.53;4840734;29;20514;-73
2020/12/18 09:23:02;;;;;;;157.18;67.68;;;;;;;3.39;94.36;99199.41;4840304;29;20080;-73
2020/12/18 09:25:28;;;;;;;148.38;67.72;;;;;;;3.37;93.98;99196.84;4841278;29;20133;-73
2020/12/18 09:27:55;;;;;;;163.93;72.50;;;;;;;3.35;93.45;99193.44;4849410;29;20133;-74
2020/12/18 09:30:29;;;;;;;143.10;66.22;;;;;;;3.37;94.08;99188.22;4861661;29;20132;-73
2020/12/18 09:33:12;;;;;;;152.52;68.80;;;;;;;3.17;94.53;99202.50;4860814;29;20049;-75
2020/12/18 09:35:39;;;;;;;152.02;66.30;;;;;;;3.15;95.67;99195.66;4861987;29;20406;-74
2020/12/18 09:38:05;;;;;;;153.55;69.75;;;;;;;3.25;96.12;99198.88;4858930;29;20085;-74
2020/12/18 09:40:31;;;;;;;152.35;68.70;;;;;;;3.32;96.56;99195.25;4861641;29;20073;-73
2020/12/18 09:42:57;;;;;;;154.15;71.32;;;;;;;3.17;95.44;99199.91;4860715;29;20073;-75
2020/12/18 09:45:23;;;;;;;163.02;74.68;;;;;;;3.26;95.44;99198.84;4845358;29;20100;-78
2020/12/18 09:47:48;;;;;;;161.65;77.72;;;;;;;3.30;95.63;99197.03;4857406;29;20236;-76
2020/12/18 09:50:14;;;;;;;159.80;74.82;;;;;;;3.51;95.00;99198.25;4862020;29;20124;-74
2020/12/18 09:52:40;;;;;;;150.95;74.78;;;;;;;3.50;94.55;99202.56;4860533;29;20049;-77
2020/12/18 09:55:06;;;;;;;153.52;74.60;;;;;;;3.81;91.89;99194.00;4861236;29;20152;-74
2020/12/18 09:57:34;;;;;;;142.90;71.43;;;;;;;4.20;88.64;99193.84;4847946;29;20187;-73
2020/12/18 10:00:05;;;;;;;151.50;73.60;;;;;;;3.92;90.70;99199.78;4842287;29;20564;-73
2020/12/18 10:02:31;;;;;;;154.68;75.22;;;;;;;3.87;91.25;99201.63;4849425;29;20045;-75
2020/12/18 10:04:57;;;;;;;145.48;74.75;;;;;;;4.05;91.36;99194.25;4860564;29;20129;-75
2020/12/18 10:07:23;;;;;;;143.23;72.28;;;;;;;4.54;87.46;99200.66;4850155;29;20452;-74
2020/12/18 10:09:49;;;;;;;144.80;73.03;;;;;;;4.38;89.44;99197.63;4842557;29;20050;-73
2020/12/18 10:12:15;;;;;;;138.57;70.40;;;;;;;4.38;88.56;99197.63;4829589;29;20041;-76
2020/12/18 10:14:41;;;;;;;139.57;70.43;;;;;;;4.63;87.15;99194.34;4860834;29;20045;-73
2020/12/18 10:17:06;;;;;;;147.32;75.63;;;;;;;4.78;86.22;99187.84;4858993;29;20501;-74
2020/12/18 10:19:34;;;;;;;126.22;65.03;;;;;;;4.90;85.02;99190.06;4860833;29;20439;-74
2020/12/18 10:22:00;;;;;;;133.65;68.40;;;;;;;4.69;85.00;99196.75;4859890;29;20053;-75
2020/12/18 10:24:26;;;;;;;135.75;68.70;;;;;;;4.79;85.50;99192.16;4860265;29;20049;-73
2020/12/18 10:26:51;;;;;;;130.77;70.25;;;;;;;4.40;86.66;99197.59;4842118;29;20558;-74
2020/12/18 10:29:17;;;;;;;132.07;69.80;;;;;;;4.12;88.17;99185.41;4861386;29;20056;-74
2020/12/18 10:31:43;;;;;;;126.55;65.80;;;;;;;4.40;86.33;99198.47;4860538;29;20197;-76
2020/12/18 10:34:09;;;;;;;139.30;72.10;;;;;;;4.34;88.09;99190.84;4861227;29;20483;-75
2020/12/18 10:36:34;;;;;;;136.20;70.28;;;;;;;4.62;86.12;99196.09;4861437;29;20132;-74
2020/12/18 10:39:00;;;;;;;132.23;67.70;;;;;;;4.74;85.07;99197.47;4843283;29;20482;-78
2020/12/18 10:41:26;;;;;;;132.52;71.00;;;;;;;5.11;84.96;99185.09;4840992;29;20050;-79
2020/12/18 10:43:52;;;;;;;124.25;66.95;;;;;;;5.76;80.47;99189.00;4844955;29;20045;-74
2020/12/18 10:46:18;;;;;;;109.95;58.65;;;;;;;6.09;77.68;99194.81;4842259;29;20053;-72
2020/12/18 10:48:44;;;;;;;110.45;58.63;;;;;;;6.60;75.95;99190.38;4842223;29;20501;-77
2020/12/18 10:51:09;;;;;;;118.60;58.50;;;;;;;7.04;73.58;99180.91;4850285;29;20052;-74
2020/12/18 10:53:35;;;;;;;119.88;61.25;;;;;;;7.60;74.47;99177.75;4858159;29;20069;-73
2020/12/18 10:56:01;;;;;;;113.70;60.50;;;;;;;8.09;71.39;99187.00;4859972;29;20041;-76
2020/12/18 10:58:27;;;;;;;97.70;55.10;;;;;;;8.34;69.24;99190.22;4846692;29;20057;-74
2020/12/18 11:00:52;;;;;;;102.47;55.45;;;;;;;8.45;68.02;99184.56;4807065;29;20054;-74
2020/12/18 11:03:19;;;;;;;101.53;55.08;;;;;;;8.21;68.99;99189.06;4823868;29;20085;-75
2020/12/18 11:05:44;;;;;;;113.35;57.90;;;;;;;7.98;71.03;99188.28;4822408;29;20050;-76
2020/12/18 11:08:10;;;;;;;102.47;56.10;;;;;;;7.35;71.84;99186.59;4823074;29;20464;-74
2020/12/18 11:10:36;;;;;;;87.70;50.25;;;;;;;6.95;73.01;99190.78;4823303;29;20057;-76
2020/12/18 11:13:02;;;;;;;96.78;53.03;;;;;;;7.25;72.33;99181.81;4821817;29;20042;-73
2020/12/18 11:15:28;;;;;;;100.65;55.33;;;;;;;6.75;75.04;99188.09;4837356;29;20050;-72
2020/12/18 11:17:56;;;;;;;104.90;58.40;;;;;;;6.69;75.81;99185.72;4822569;29;20055;-75
2020/12/18 11:20:22;;;;;;;100.93;53.80;;;;;;;7.08;74.16;99179.88;4823888;29;20054;-73
2020/12/18 11:22:48;;;;;;;99.80;52.65;;;;;;;6.48;75.65;99177.81;4821852;29;20074;-76
2020/12/18 11:25:14;;;;;;;106.65;55.88;;;;;;;6.10;77.68;99180.03;4823647;29;20099;-73